Fletcher Field


Codes: KCKM/CKM
Name: Fletcher Field
City: Clarksdale
Country: United States
Elevation: 173 ft.
Wikipedia:

Photos at Fletcher Field


   Photos courtesy of SpottingLog. You can add your own sightings and photos by signing up for a free trial today.



No photos found.

Weather at Fletcher Field


Time (UTC)DescriptionTempratureWindCloud coverageVisibilityPressureHumidity
21-Feb-2024 03:00Clear Sky11°C7 mph, S3%10000m1023hPa79%
21-Feb-2024 06:00Clear Sky11°C7 mph, S4%10000m1023hPa81%
21-Feb-2024 09:00Clear Sky10°C9 mph, S10%10000m1023hPa86%
21-Feb-2024 12:00Scattered Clouds9°C9 mph, S25%10000m1022hPa93%
21-Feb-2024 15:00Overcast Clouds14°C13 mph, S100%10000m1022hPa85%
21-Feb-2024 18:00Overcast Clouds19°C18 mph, S100%10000m1020hPa67%
21-Feb-2024 21:00Overcast Clouds20°C18 mph, S100%10000m1017hPa66%
22-Feb-2024 00:00Overcast Clouds17°C18 mph, S100%10000m1015hPa73%
22-Feb-2024 03:00Overcast Clouds16°C18 mph, S100%10000m1014hPa75%
22-Feb-2024 06:00Broken Clouds15°C20 mph, S75%10000m1014hPa84%
22-Feb-2024 09:00Scattered Clouds15°C22 mph, SW46%10000m1012hPa83%
22-Feb-2024 12:00Broken Clouds15°C20 mph, S73%10000m1010hPa79%
22-Feb-2024 15:00Overcast Clouds17°C20 mph, SW100%10000m1009hPa78%
22-Feb-2024 18:00Overcast Clouds18°C18 mph, SW100%10000m1007hPa76%
22-Feb-2024 21:00Light Rain19°C13 mph, SW100%10000m1006hPa73%
23-Feb-2024 00:00Light Rain17°C7 mph, SW100%10000m1005hPa79%
23-Feb-2024 03:00Light Rain17°C13 mph, N100%10000m1006hPa78%
23-Feb-2024 06:00Broken Clouds13°C13 mph, N72%10000m1009hPa80%
23-Feb-2024 09:00Few Clouds11°C9 mph, N13%10000m1010hPa89%
23-Feb-2024 12:00Few Clouds10°C9 mph, NW18%10000m1012hPa87%
23-Feb-2024 15:00Clear Sky12°C11 mph, NW0%10000m1014hPa66%
23-Feb-2024 18:00Clear Sky15°C11 mph, NW0%10000m1014hPa46%
23-Feb-2024 21:00Clear Sky17°C13 mph, NW0%10000m1013hPa38%
24-Feb-2024 00:00Clear Sky13°C4 mph, NW0%10000m1013hPa53%
24-Feb-2024 03:00Clear Sky11°C4 mph, W2%10000m1015hPa61%
24-Feb-2024 06:00Clear Sky11°C4 mph, W2%10000m1015hPa65%
24-Feb-2024 09:00Clear Sky9°C7 mph, W0%10000m1015hPa73%
24-Feb-2024 12:00Clear Sky9°C7 mph, W1%10000m1016hPa74%
24-Feb-2024 15:00Clear Sky13°C11 mph, NW0%10000m1019hPa59%
24-Feb-2024 18:00Clear Sky16°C11 mph, N0%10000m1019hPa44%
24-Feb-2024 21:00Clear Sky17°C11 mph, NW0%10000m1019hPa40%
25-Feb-2024 00:00Clear Sky13°C4 mph, NE0%10000m1019hPa56%
25-Feb-2024 03:00Clear Sky10°C7 mph, SE0%10000m1020hPa64%
25-Feb-2024 06:00Clear Sky9°C7 mph, S0%10000m1020hPa70%
25-Feb-2024 09:00Clear Sky8°C9 mph, S6%10000m1019hPa77%
25-Feb-2024 12:00Scattered Clouds9°C11 mph, S39%10000m1018hPa79%
25-Feb-2024 15:00Overcast Clouds13°C13 mph, S91%10000m1019hPa64%
25-Feb-2024 18:00Overcast Clouds18°C18 mph, SW95%10000m1017hPa53%
25-Feb-2024 21:00Overcast Clouds20°C18 mph, S100%10000m1014hPa52%
26-Feb-2024 00:00Overcast Clouds17°C18 mph, S99%10000m1014hPa57%